Time;durP1;ratioP1;P1;durP2;ratioP2;P2;SDS_P1;SDS_P2;PMS_P1;PMS_P2;Temp;Humidity;BMP_temperature;BMP_pressure;BME280_temperature;BME280_humidity;BME280_pressure;Samples;Min_cycle;Max_cycle;Signal;HPM_P1;HPM_P2
2023/04/22 00:01:03;;;;;;;10.10;8.63;;;9.60;99.90;;;;;;5079675;28;20272;-61
2023/04/22 00:03:31;;;;;;;9.17;8.17;;;9.60;99.90;;;;;;5060467;28;20199;-59
2023/04/22 00:05:58;;;;;;;9.97;8.27;;;9.60;99.90;;;;;;5064406;28;20192;-59
2023/04/22 00:08:26;;;;;;;8.33;7.47;;;9.60;99.90;;;;;;5080265;28;20191;-60
2023/04/22 00:10:52;;;;;;;10.47;7.80;;;9.60;99.90;;;;;;5074925;28;20201;-60
2023/04/22 00:13:19;;;;;;;8.73;7.70;;;9.70;99.90;;;;;;5073979;28;20201;-60
2023/04/22 00:15:46;;;;;;;7.63;6.80;;;9.60;99.90;;;;;;5076462;28;20776;-60
2023/04/22 00:18:13;;;;;;;9.23;6.70;;;9.60;99.90;;;;;;5078296;28;20227;-60
2023/04/22 00:20:42;;;;;;;8.57;7.47;;;9.60;99.90;;;;;;5061220;28;20560;-60
2023/04/22 00:23:10;;;;;;;8.67;7.27;;;9.50;99.90;;;;;;5068290;28;20238;-60
2023/04/22 00:25:39;;;;;;;8.10;7.07;;;9.50;99.90;;;;;;5079516;28;20199;-60
2023/04/22 00:28:06;;;;;;;11.27;7.10;;;9.50;99.90;;;;;;5078286;28;20226;-60
2023/04/22 00:30:33;;;;;;;7.43;6.67;;;9.50;99.90;;;;;;5077704;28;20311;-60
2023/04/22 00:32:59;;;;;;;8.57;7.20;;;9.50;99.90;;;;;;5076495;28;20714;-61
2023/04/22 00:35:27;;;;;;;8.00;6.60;;;9.50;99.90;;;;;;5059086;28;20257;-61
2023/04/22 00:37:53;;;;;;;8.03;6.90;;;9.50;99.90;;;;;;5079122;28;20223;-60
2023/04/22 00:40:21;;;;;;;8.27;7.37;;;9.40;99.90;;;;;;5078500;28;20271;-60
2023/04/22 00:42:49;;;;;;;7.20;6.40;;;9.50;99.90;;;;;;5078739;28;20211;-60
2023/04/22 00:45:16;;;;;;;9.20;7.00;;;9.40;99.90;;;;;;5078515;28;20198;-61
2023/04/22 00:47:44;;;;;;;7.43;6.73;;;9.50;99.90;;;;;;5074234;28;20406;-60
2023/04/22 00:50:12;;;;;;;7.20;6.17;;;9.50;99.90;;;;;;5071743;28;20262;-60
2023/04/22 00:52:39;;;;;;;8.30;6.63;;;9.40;99.90;;;;;;5074523;28;20244;-60
2023/04/22 00:55:06;;;;;;;8.20;6.47;;;9.40;99.90;;;;;;5072529;28;20255;-60
2023/04/22 00:57:34;;;;;;;7.20;6.50;;;9.30;99.90;;;;;;5060320;28;20192;-61
2023/04/22 01:00:04;;;;;;;8.13;6.70;;;9.20;99.90;;;;;;5073425;28;20408;-60
2023/04/22 01:02:31;;;;;;;6.97;6.27;;;9.10;99.90;;;;;;5075491;28;20188;-61
2023/04/22 01:04:58;;;;;;;7.50;6.30;;;9.30;99.90;;;;;;5072217;28;20195;-60
2023/04/22 01:07:25;;;;;;;7.93;6.23;;;9.20;99.90;;;;;;5075379;28;20202;-60
2023/04/22 01:09:52;;;;;;;7.53;6.73;;;9.20;99.90;;;;;;5076393;28;20202;-60
2023/04/22 01:12:19;;;;;;;7.57;6.77;;;9.20;99.90;;;;;;5057443;28;20851;-60
2023/04/22 01:14:46;;;;;;;7.60;6.67;;;9.30;99.90;;;;;;5074535;28;20210;-60
2023/04/22 01:17:15;;;;;;;10.30;6.80;;;9.30;99.90;;;;;;5059489;28;20298;-60
2023/04/22 01:19:42;;;;;;;8.13;7.33;;;9.20;99.90;;;;;;5073897;28;20265;-60
2023/04/22 01:22:12;;;;;;;8.00;6.77;;;9.20;99.90;;;;;;5058352;28;20223;-61
2023/04/22 01:24:39;;;;;;;8.17;7.00;;;9.20;99.90;;;;;;5075904;28;20238;-61
2023/04/22 01:27:06;;;;;;;8.27;7.03;;;9.10;99.90;;;;;;5074727;28;20217;-61
2023/04/22 01:29:36;;;;;;;10.17;7.87;;;9.20;99.90;;;;;;5056486;28;20228;-61
2023/04/22 01:32:04;;;;;;;7.70;6.73;;;9.20;99.90;;;;;;5074011;28;20203;-60
2023/04/22 01:34:31;;;;;;;9.47;7.23;;;9.30;99.90;;;;;;5075944;28;20208;-61
2023/04/22 01:36:58;;;;;;;9.20;7.40;;;9.30;99.90;;;;;;5070671;28;20198;-61
2023/04/22 01:39:26;;;;;;;9.63;7.37;;;9.40;99.90;;;;;;5076237;28;20238;-61
2023/04/22 01:41:53;;;;;;;8.03;7.23;;;9.30;99.90;;;;;;5075345;28;20695;-61
2023/04/22 01:44:20;;;;;;;8.27;7.23;;;9.40;99.90;;;;;;5076346;28;20199;-60
2023/04/22 01:46:46;;;;;;;8.53;7.43;;;9.40;99.90;;;;;;5076118;28;20259;-65
2023/04/22 01:49:13;;;;;;;9.07;8.07;;;9.40;99.90;;;;;;5060858;28;20199;-60
2023/04/22 01:51:40;;;;;;;8.70;7.60;;;9.40;99.90;;;;;;5075368;28;20292;-60
2023/04/22 01:54:08;;;;;;;9.23;7.50;;;9.50;99.90;;;;;;5074474;28;20648;-60
2023/04/22 01:56:35;;;;;;;8.43;7.33;;;9.50;99.90;;;;;;5074054;28;20235;-60
2023/04/22 01:59:02;;;;;;;9.60;7.87;;;9.50;99.90;;;;;;5059351;28;20225;-60
2023/04/22 02:01:29;;;;;;;9.13;7.77;;;9.50;99.90;;;;;;5056689;28;20239;-60
2023/04/22 02:03:56;;;;;;;8.40;7.50;;;9.50;99.90;;;;;;5073850;28;20197;-60
2023/04/22 02:06:23;;;;;;;8.37;7.53;;;9.50;99.90;;;;;;5042918;28;20722;-60
2023/04/22 02:08:49;;;;;;;8.57;7.70;;;9.50;99.90;;;;;;5076661;28;20656;-61
2023/04/22 02:11:16;;;;;;;10.63;9.17;;;9.50;99.90;;;;;;5055092;28;20715;-60
2023/04/22 02:13:43;;;;;;;10.90;8.33;;;9.60;99.90;;;;;;5057078;28;20206;-61
2023/04/22 02:16:10;;;;;;;8.70;7.80;;;9.50;99.90;;;;;;5074986;28;20244;-61
2023/04/22 02:18:37;;;;;;;10.50;8.53;;;9.50;99.90;;;;;;5069580;28;20233;-60
2023/04/22 02:21:04;;;;;;;9.67;8.67;;;9.60;99.90;;;;;;5074448;28;20731;-60
2023/04/22 02:23:31;;;;;;;9.03;8.13;;;9.50;99.90;;;;;;5055707;28;20646;-60
2023/04/22 02:25:58;;;;;;;10.07;8.37;;;9.50;99.90;;;;;;5062015;28;20187;-60
2023/04/22 02:28:25;;;;;;;11.83;8.70;;;9.50;99.90;;;;;;5057540;28;20589;-60
2023/04/22 02:30:52;;;;;;;11.13;9.50;;;9.50;99.90;;;;;;5073029;28;20791;-60
2023/04/22 02:33:19;;;;;;;10.67;9.00;;;9.50;99.90;;;;;;5071054;28;20266;-60
2023/04/22 02:35:46;;;;;;;11.33;9.30;;;9.40;99.90;;;;;;5043575;28;20559;-61
2023/04/22 02:38:13;;;;;;;11.37;9.60;;;9.40;99.90;;;;;;5074673;28;20208;-60
2023/04/22 02:40:39;;;;;;;9.80;8.77;;;9.50;99.90;;;;;;5058857;28;20199;-60
2023/04/22 02:43:06;;;;;;;10.17;9.13;;;9.60;99.90;;;;;;5070956;28;20202;-60
2023/04/22 02:45:33;;;;;;;10.70;9.50;;;9.60;99.90;;;;;;5072064;28;20198;-61
2023/04/22 02:48:00;;;;;;;10.70;9.27;;;9.60;99.90;;;;;;5068911;28;20663;-61
2023/04/22 02:50:27;;;;;;;9.43;8.43;;;9.60;99.90;;;;;;5055890;28;20311;-61
2023/04/22 02:52:54;;;;;;;10.90;9.30;;;9.60;99.90;;;;;;5072163;28;20507;-60
2023/04/22 02:55:23;;;;;;;10.17;8.93;;;9.60;99.90;;;;;;5069772;28;20232;-61
2023/04/22 02:57:50;;;;;;;10.80;9.33;;;9.40;99.90;;;;;;5073528;28;20246;-60
2023/04/22 03:00:17;;;;;;;10.77;9.40;;;9.50;99.90;;;;;;5056502;28;20218;-61
2023/04/22 03:02:44;;;;;;;10.27;8.60;;;9.40;99.90;;;;;;5052377;28;20250;-60
2023/04/22 03:05:11;;;;;;;13.73;9.60;;;9.50;99.90;;;;;;5050050;28;20196;-60
2023/04/22 03:07:38;;;;;;;10.20;8.63;;;9.40;99.90;;;;;;5069585;28;20282;-60
2023/04/22 03:10:05;;;;;;;9.73;8.60;;;9.50;99.90;;;;;;5053250;28;20199;-60
2023/04/22 03:12:32;;;;;;;9.33;8.20;;;9.50;99.90;;;;;;5055651;28;20656;-60
2023/04/22 03:14:59;;;;;;;9.97;7.77;;;9.50;99.90;;;;;;5071390;28;20203;-60
2023/04/22 03:17:26;;;;;;;9.77;8.27;;;9.60;99.90;;;;;;5072324;28;20330;-60
2023/04/22 03:19:53;;;;;;;8.90;8.00;;;9.60;99.90;;;;;;5051226;28;20285;-60
2023/04/22 03:22:20;;;;;;;10.83;7.63;;;9.60;99.90;;;;;;5072386;28;20209;-60
2023/04/22 03:24:47;;;;;;;10.57;8.47;;;9.60;99.90;;;;;;5069785;28;20198;-60
2023/04/22 03:27:14;;;;;;;10.30;8.20;;;9.60;99.90;;;;;;5056835;28;20212;-61
2023/04/22 03:29:41;;;;;;;9.77;7.90;;;9.60;99.90;;;;;;5074082;28;20290;-60
2023/04/22 03:32:08;;;;;;;11.63;8.53;;;9.60;99.90;;;;;;5079325;28;20897;-61
2023/04/22 03:34:35;;;;;;;9.40;8.33;;;9.60;99.90;;;;;;5072463;28;20265;-60
2023/04/22 03:37:03;;;;;;;13.10;8.70;;;9.60;99.90;;;;;;5076209;28;20202;-60
2023/04/22 03:39:30;;;;;;;10.93;8.43;;;9.60;99.90;;;;;;5075864;28;20267;-60
2023/04/22 03:41:57;;;;;;;10.80;9.33;;;9.50;99.90;;;;;;5072330;28;20272;-60
2023/04/22 03:44:23;;;;;;;10.60;9.50;;;9.60;99.90;;;;;;5057214;28;20479;-60
2023/04/22 03:46:50;;;;;;;11.30;9.13;;;9.50;99.90;;;;;;5073226;28;20374;-60
2023/04/22 03:49:17;;;;;;;10.10;8.73;;;9.50;99.90;;;;;;5043359;28;20593;-60
2023/04/22 03:51:44;;;;;;;10.30;9.07;;;9.60;99.90;;;;;;5074449;28;20203;-60
2023/04/22 03:54:11;;;;;;;10.93;9.37;;;9.60;99.90;;;;;;5074807;28;20274;-60
2023/04/22 03:56:38;;;;;;;10.07;9.07;;;9.60;99.90;;;;;;5057653;28;20195;-60
2023/04/22 03:59:05;;;;;;;10.43;8.83;;;9.60;99.90;;;;;;5073756;28;20199;-60
2023/04/22 04:01:32;;;;;;;10.67;9.27;;;9.50;99.90;;;;;;5074953;28;20974;-60
2023/04/22 04:03:59;;;;;;;10.13;8.80;;;9.60;99.90;;;;;;5071905;28;20628;-60
2023/04/22 04:06:26;;;;;;;13.07;9.53;;;9.50;99.90;;;;;;5053105;28;20202;-60
2023/04/22 04:08:53;;;;;;;10.43;9.30;;;9.50;99.90;;;;;;5074865;28;20211;-60
2023/04/22 04:11:20;;;;;;;9.77;8.77;;;9.40;99.90;;;;;;5070232;28;20251;-61
2023/04/22 04:13:47;;;;;;;10.17;9.07;;;9.40;99.90;;;;;;5074609;28;20208;-60
2023/04/22 04:16:15;;;;;;;11.30;9.37;;;9.40;99.90;;;;;;5056890;28;20223;-60
2023/04/22 04:18:42;;;;;;;12.40;9.93;;;9.50;99.90;;;;;;5071948;28;20224;-60
2023/04/22 04:21:09;;;;;;;12.27;9.77;;;9.50;99.90;;;;;;5071531;28;20236;-60
2023/04/22 04:23:36;;;;;;;11.83;9.70;;;9.50;99.90;;;;;;5055370;28;20200;-60
2023/04/22 04:26:04;;;;;;;10.10;9.10;;;9.50;99.90;;;;;;5072276;28;20206;-60
2023/04/22 04:28:32;;;;;;;10.13;8.57;;;9.50;99.90;;;;;;5053624;28;20241;-59
2023/04/22 04:30:59;;;;;;;11.53;9.93;;;9.60;99.90;;;;;;5070969;28;20699;-59
2023/04/22 04:33:27;;;;;;;12.60;9.87;;;9.60;99.90;;;;;;5071469;28;20203;-59
2023/04/22 04:35:54;;;;;;;10.97;9.87;;;9.50;99.90;;;;;;5053226;28;20226;-60
2023/04/22 04:38:21;;;;;;;11.00;9.23;;;9.50;99.90;;;;;;5056726;28;20257;-60
2023/04/22 04:40:49;;;;;;;13.27;9.90;;;9.50;99.90;;;;;;5057326;28;20198;-60
2023/04/22 04:43:17;;;;;;;12.93;10.03;;;9.50;99.90;;;;;;5056839;28;20235;-60
2023/04/22 04:45:45;;;;;;;12.33;9.50;;;9.60;99.90;;;;;;5070052;28;20235;-60
2023/04/22 04:48:15;;;;;;;11.13;9.20;;;9.60;99.90;;;;;;5072462;28;20272;-60
2023/04/22 04:50:43;;;;;;;15.23;10.10;;;9.50;99.90;;;;;;5071362;28;20214;-59
2023/04/22 04:53:10;;;;;;;12.30;9.93;;;9.60;99.90;;;;;;5072024;28;20624;-60
2023/04/22 04:55:38;;;;;;;11.53;10.10;;;9.50;99.90;;;;;;5054489;28;20288;-60
2023/04/22 04:58:05;;;;;;;11.53;10.33;;;9.50;99.90;;;;;;5052117;28;20476;-59
2023/04/22 05:00:32;;;;;;;14.40;9.93;;;9.50;99.90;;;;;;5058245;28;20286;-60
2023/04/22 05:02:59;;;;;;;11.00;9.90;;;9.50;99.90;;;;;;5056408;28;20817;-60
2023/04/22 05:05:27;;;;;;;10.73;9.53;;;9.50;99.90;;;;;;5075302;28;20336;-60
2023/04/22 05:07:53;;;;;;;12.00;10.13;;;9.60;99.90;;;;;;5074319;28;20205;-60
2023/04/22 05:10:20;;;;;;;10.87;9.43;;;9.60;99.90;;;;;;5057384;28;20652;-60
2023/04/22 05:12:47;;;;;;;11.70;10.10;;;9.40;99.90;;;;;;5076243;28;20222;-60
2023/04/22 05:15:14;;;;;;;11.90;9.97;;;9.40;99.90;;;;;;5055921;28;20570;-60
2023/04/22 05:17:41;;;;;;;13.80;11.33;;;9.40;99.90;;;;;;5057517;28;21395;-59
2023/04/22 05:20:09;;;;;;;11.80;10.50;;;9.50;99.90;;;;;;5026418;28;20216;-60
2023/04/22 05:22:36;;;;;;;14.93;11.27;;;9.50;99.90;;;;;;5075777;28;20227;-60
2023/04/22 05:25:03;;;;;;;13.00;10.53;;;9.60;99.90;;;;;;5074099;28;20197;-60
2023/04/22 05:27:30;;;;;;;13.07;11.13;;;9.60;99.90;;;;;;5073864;28;20232;-60
2023/04/22 05:29:57;;;;;;;14.80;11.20;;;9.60;99.90;;;;;;5075858;28;20938;-60
2023/04/22 05:32:24;;;;;;;12.20;10.50;;;9.50;99.90;;;;;;5057989;28;20218;-60
2023/04/22 05:34:51;;;;;;;13.20;11.13;;;9.60;99.90;;;;;;5072723;28;20207;-60
2023/04/22 05:37:18;;;;;;;15.50;12.20;;;9.60;99.90;;;;;;5075180;28;20199;-60
2023/04/22 05:39:45;;;;;;;12.63;11.33;;;9.70;99.90;;;;;;5075102;28;20215;-60
2023/04/22 05:42:11;;;;;;;13.33;11.73;;;9.70;99.90;;;;;;5072852;28;20719;-60
2023/04/22 05:44:38;;;;;;;11.30;10.07;;;9.80;99.90;;;;;;5072070;28;20262;-60
2023/04/22 05:47:05;;;;;;;12.70;11.40;;;9.70;99.90;;;;;;5071779;28;20230;-60
2023/04/22 05:49:32;;;;;;;11.40;10.20;;;9.80;99.90;;;;;;5073389;28;20229;-60
2023/04/22 05:51:59;;;;;;;13.20;10.77;;;9.80;99.90;;;;;;5072246;28;20192;-60
2023/04/22 05:54:28;;;;;;;13.10;11.63;;;9.80;99.90;;;;;;5070035;28;20327;-60
2023/04/22 05:56:55;;;;;;;12.97;11.17;;;9.90;99.90;;;;;;5073838;28;20195;-61
2023/04/22 05:59:22;;;;;;;14.50;11.13;;;9.90;99.90;;;;;;5058031;28;20583;-60
2023/04/22 06:01:49;;;;;;;13.27;11.57;;;9.80;99.90;;;;;;5033774;28;20226;-60
2023/04/22 06:04:18;;;;;;;13.13;11.57;;;9.80;99.90;;;;;;5054334;28;20202;-60
2023/04/22 06:06:46;;;;;;;13.90;12.43;;;9.90;99.90;;;;;;5074735;28;20227;-60
2023/04/22 06:09:13;;;;;;;13.60;11.80;;;10.10;99.90;;;;;;5073193;28;20197;-60
2023/04/22 06:11:40;;;;;;;15.60;11.70;;;10.30;99.90;;;;;;5056949;28;20269;-60
2023/04/22 06:14:07;;;;;;;12.57;11.27;;;10.50;99.90;;;;;;5074757;28;20663;-60
2023/04/22 06:16:34;;;;;;;12.97;11.57;;;10.50;99.90;;;;;;5075906;28;20209;-59
2023/04/22 06:19:01;;;;;;;12.27;11.00;;;10.70;99.90;;;;;;5062247;28;20336;-60
2023/04/22 06:21:28;;;;;;;15.23;11.57;;;10.90;99.90;;;;;;5073356;28;20204;-60
2023/04/22 06:23:55;;;;;;;12.47;11.17;;;10.90;99.90;;;;;;5073160;28;20295;-60
2023/04/22 06:26:22;;;;;;;12.83;10.70;;;11.10;99.90;;;;;;5072805;28;20195;-60
2023/04/22 06:28:49;;;;;;;12.23;10.57;;;11.30;99.90;;;;;;5073051;28;20661;-60
2023/04/22 06:31:16;;;;;;;11.70;9.80;;;11.50;99.90;;;;;;5073225;28;20233;-60
2023/04/22 06:33:46;;;;;;;11.87;10.17;;;11.50;99.90;;;;;;5072496;28;20197;-60
2023/04/22 06:36:13;;;;;;;11.97;10.20;;;11.50;99.90;;;;;;5073821;28;20202;-60
2023/04/22 06:38:40;;;;;;;10.13;9.13;;;11.50;99.90;;;;;;5074610;28;20560;-60
2023/04/22 06:41:07;;;;;;;10.67;9.37;;;11.60;99.90;;;;;;5056575;28;20206;-60
2023/04/22 06:43:33;;;;;;;10.67;9.43;;;11.80;99.90;;;;;;5047620;28;20739;-60
2023/04/22 06:46:00;;;;;;;11.47;9.70;;;11.90;99.90;;;;;;5074803;28;20195;-60
2023/04/22 06:48:27;;;;;;;10.70;9.53;;;12.20;99.90;;;;;;5073511;28;20306;-60
2023/04/22 06:50:54;;;;;;;11.03;8.70;;;12.40;99.90;;;;;;5055257;28;20201;-60
2023/04/22 06:53:21;;;;;;;11.60;9.00;;;12.40;99.90;;;;;;5058070;28;20228;-61
2023/04/22 06:55:49;;;;;;;13.53;8.83;;;12.40;99.90;;;;;;5073918;28;20225;-61
2023/04/22 06:58:15;;;;;;;10.77;8.93;;;12.40;99.90;;;;;;5073785;28;20652;-60
2023/04/22 07:00:42;;;;;;;10.23;9.23;;;12.40;99.90;;;;;;5073649;28;20208;-60
2023/04/22 07:03:09;;;;;;;11.00;9.23;;;12.40;99.90;;;;;;5074205;28;20308;-61
2023/04/22 07:05:36;;;;;;;11.93;9.90;;;12.50;99.90;;;;;;5072592;28;20201;-60
2023/04/22 07:08:05;;;;;;;12.73;9.57;;;12.90;99.90;;;;;;5050250;28;20201;-60
2023/04/22 07:10:33;;;;;;;10.70;8.50;;;12.90;99.90;;;;;;5054966;28;20225;-62
2023/04/22 07:12:59;;;;;;;10.03;9.03;;;13.10;99.90;;;;;;5073048;28;20754;-60
2023/04/22 07:15:26;;;;;;;9.20;8.23;;;13.10;99.90;;;;;;5072949;28;20197;-60
2023/04/22 07:17:53;;;;;;;9.33;8.33;;;12.90;99.90;;;;;;5072734;28;20233;-60
2023/04/22 07:20:20;;;;;;;8.90;8.00;;;12.80;99.90;;;;;;5072749;28;20205;-60
2023/04/22 07:22:47;;;;;;;9.87;8.07;;;13.00;99.90;;;;;;5071933;28;20542;-61
2023/04/22 07:25:14;;;;;;;10.23;9.00;;;13.20;99.90;;;;;;4707453;28;9999727;-60
2023/04/22 07:27:41;;;;;;;9.17;8.03;;;13.20;99.90;;;;;;5065194;28;20201;-60
2023/04/22 07:30:10;;;;;;;9.67;8.67;;;13.30;99.90;;;;;;5068723;28;20620;-60
2023/04/22 07:32:36;;;;;;;9.30;8.40;;;13.20;99.90;;;;;;5066566;28;20311;-60
2023/04/22 07:35:04;;;;;;;8.17;7.37;;;13.50;99.90;;;;;;5048913;28;20208;-60
2023/04/22 07:37:31;;;;;;;9.60;8.70;;;13.70;99.90;;;;;;5051436;28;20224;-60
2023/04/22 07:39:58;;;;;;;8.73;7.87;;;13.90;99.90;;;;;;5051088;28;20208;-60
2023/04/22 07:42:25;;;;;;;9.53;7.93;;;14.20;99.90;;;;;;5070793;28;20770;-60
2023/04/22 07:44:52;;;;;;;9.20;8.23;;;14.30;99.90;;;;;;5070573;28;20204;-60
2023/04/22 07:47:19;;;;;;;9.30;7.33;;;14.60;99.90;;;;;;5035823;28;20238;-60
2023/04/22 07:49:46;;;;;;;10.20;7.10;;;14.30;99.90;;;;;;5067029;28;21031;-60
2023/04/22 07:52:13;;;;;;;9.80;8.03;;;14.30;99.90;;;;;;5070689;28;20279;-60
2023/04/22 07:54:39;;;;;;;8.97;8.03;;;14.50;99.90;;;;;;5050383;28;20330;-60
2023/04/22 07:57:06;;;;;;;10.07;8.23;;;14.20;99.90;;;;;;5070313;28;20297;-61
2023/04/22 07:59:33;;;;;;;8.97;8.17;;;14.30;99.90;;;;;;5051791;28;20273;-60
2023/04/22 08:02:00;;;;;;;9.57;8.50;;;14.60;99.90;;;;;;5069600;28;20210;-61
2023/04/22 08:04:27;;;;;;;9.77;8.40;;;14.90;99.90;;;;;;5052584;28;20195;-60
2023/04/22 08:06:55;;;;;;;11.80;8.50;;;14.90;99.90;;;;;;5070958;28;20196;-60
2023/04/22 08:09:21;;;;;;;11.33;8.70;;;14.90;99.90;;;;;;5058218;28;20693;-60
2023/04/22 08:11:51;;;;;;;9.23;7.87;;;15.00;99.90;;;;;;5067594;28;20280;-59
2023/04/22 08:14:18;;;;;;;9.37;8.20;;;14.90;99.90;;;;;;5070815;28;20655;-60
2023/04/22 08:16:45;;;;;;;9.23;7.87;;;15.10;99.90;;;;;;5073305;28;20664;-60
2023/04/22 08:19:11;;;;;;;9.63;7.80;;;15.00;99.90;;;;;;5055216;28;20232;-61
2023/04/22 08:21:38;;;;;;;10.27;8.53;;;15.30;99.90;;;;;;5073462;28;20805;-60
2023/04/22 08:24:05;;;;;;;9.40;7.63;;;15.30;99.90;;;;;;5074389;28;20307;-61
2023/04/22 08:26:32;;;;;;;9.67;8.53;;;15.60;99.90;;;;;;5072612;28;20263;-60
2023/04/22 08:29:00;;;;;;;9.37;7.80;;;15.70;99.90;;;;;;5040504;28;20228;-60
2023/04/22 08:31:26;;;;;;;8.30;7.50;;;15.70;99.90;;;;;;5072822;28;20235;-60
2023/04/22 08:33:54;;;;;;;10.63;8.67;;;15.60;99.90;;;;;;5071266;28;20221;-61
2023/04/22 08:36:25;;;;;;;9.93;8.03;;;15.80;99.90;;;;;;5057991;28;20857;-60
2023/04/22 08:38:53;;;;;;;10.40;8.63;;;15.90;99.90;;;;;;5070924;28;20208;-63
2023/04/22 08:41:21;;;;;;;10.03;8.27;;;15.70;99.90;;;;;;5073480;28;20292;-60
2023/04/22 08:43:48;;;;;;;8.53;7.73;;;16.10;99.90;;;;;;5071686;28;20253;-60
2023/04/22 08:46:18;;;;;;;9.00;8.10;;;16.20;99.90;;;;;;5069829;28;20363;-60
2023/04/22 08:48:49;;;;;;;8.80;6.87;;;16.40;99.90;;;;;;5046587;28;20247;-60
2023/04/22 08:51:17;;;;;;;8.43;7.63;;;16.70;99.90;;;;;;5057113;28;20249;-60
2023/04/22 08:53:44;;;;;;;11.20;7.13;;;16.70;99.90;;;;;;5052671;28;20232;-60
2023/04/22 08:56:14;;;;;;;8.60;7.77;;;17.10;99.90;;;;;;5076260;28;20232;-61
2023/04/22 08:58:41;;;;;;;8.50;7.40;;;16.90;99.90;;;;;;5072710;28;20238;-60
2023/04/22 09:01:09;;;;;;;10.23;7.40;;;17.00;99.90;;;;;;5069785;28;20663;-60
2023/04/22 09:03:38;;;;;;;8.77;6.87;;;17.50;99.90;;;;;;5072696;28;20283;-60
2023/04/22 09:06:07;;;;;;;7.50;6.70;;;18.00;99.90;;;;;;5070660;28;20713;-60
2023/04/22 09:08:34;;;;;;;9.17;7.23;;;17.80;99.90;;;;;;5056693;28;20202;-59
2023/04/22 09:11:02;;;;;;;7.60;6.90;;;17.50;99.90;;;;;;5074913;28;20198;-59
2023/04/22 09:13:29;;;;;;;8.77;7.17;;;17.40;99.90;;;;;;5063114;28;20667;-59
2023/04/22 09:15:56;;;;;;;6.60;5.87;;;17.20;99.90;;;;;;5048105;28;20310;-60
2023/04/22 09:18:25;;;;;;;7.63;6.73;;;17.30;99.90;;;;;;5073904;28;20726;-60
2023/04/22 09:20:55;;;;;;;7.87;6.80;;;17.40;99.90;;;;;;5073676;28;20297;-60
2023/04/22 09:23:22;;;;;;;7.93;6.40;;;17.40;99.90;;;;;;5057757;28;20218;-60
2023/04/22 09:25:49;;;;;;;7.27;6.03;;;17.40;99.90;;;;;;5071017;28;20233;-59
2023/04/22 09:28:17;;;;;;;7.23;6.53;;;17.30;99.90;;;;;;5066923;28;20283;-59
2023/04/22 09:30:45;;;;;;;6.83;6.03;;;17.50;99.90;;;;;;5055627;28;20578;-61
2023/04/22 09:33:13;;;;;;;7.07;6.37;;;17.40;99.90;;;;;;5069143;28;20197;-60
2023/04/22 09:35:41;;;;;;;7.00;5.70;;;17.50;99.90;;;;;;5072470;28;20210;-60
2023/04/22 09:38:10;;;;;;;6.00;5.40;;;17.70;99.90;;;;;;5055417;28;20665;-60
2023/04/22 09:40:40;;;;;;;5.63;5.13;;;17.90;99.90;;;;;;5070006;28;20201;-60
2023/04/22 09:43:08;;;;;;;6.73;5.33;;;18.00;99.90;;;;;;5062296;28;20929;-63
2023/04/22 09:45:37;;;;;;;7.53;5.53;;;18.30;99.90;;;;;;5068246;28;20209;-60
2023/04/22 09:48:08;;;;;;;5.87;5.27;;;18.20;99.90;;;;;;5066715;28;20201;-59
2023/04/22 09:50:36;;;;;;;6.23;5.63;;;18.00;99.90;;;;;;5069119;28;20212;-60
2023/04/22 09:53:06;;;;;;;7.53;6.80;;;18.20;99.90;;;;;;5051704;28;20295;-59
2023/04/22 09:55:37;;;;;;;6.80;6.10;;;17.70;99.90;;;;;;5073215;28;20896;-60
2023/04/22 09:58:09;;;;;;;6.10;5.50;;;17.50;99.90;;;;;;5054729;28;20725;-61
2023/04/22 10:00:48;;;;;;;6.37;5.77;;;17.90;99.90;;;;;;5073960;28;20203;-59
2023/04/22 10:03:16;;;;;;;6.50;5.67;;;18.20;99.90;;;;;;5068107;28;20318;-59
2023/04/22 10:05:44;;;;;;;9.40;6.47;;;18.50;99.90;;;;;;5067281;28;20196;-59
2023/04/22 10:08:13;;;;;;;9.30;5.70;;;18.00;99.90;;;;;;5046164;28;20291;-59
2023/04/22 10:10:40;;;;;;;6.80;5.90;;;18.20;99.90;;;;;;5071720;28;20222;-59
2023/04/22 10:13:07;;;;;;;8.40;6.17;;;18.20;99.90;;;;;;5072529;28;20246;-59
2023/04/22 10:15:47;;;;;;;8.67;6.50;;;17.50;99.90;;;;;;5069835;28;20654;-60
2023/04/22 10:18:20;;;;;;;6.87;6.03;;;17.70;99.90;;;;;;5072029;28;20234;-60
2023/04/22 10:20:48;;;;;;;6.90;6.20;;;18.00;99.90;;;;;;5072968;28;20580;-59
2023/04/22 10:23:20;;;;;;;7.13;6.43;;;18.00;99.90;;;;;;5070481;28;20234;-62
2023/04/22 10:25:54;;;;;;;7.03;6.13;;;18.10;99.90;;;;;;5067996;28;20199;-60
2023/04/22 10:28:23;;;;;;;6.40;5.67;;;18.40;99.90;;;;;;5074390;28;20210;-60
2023/04/22 10:30:50;;;;;;;7.20;5.63;;;18.20;99.90;;;;;;5068903;28;20199;-62
2023/04/22 10:33:19;;;;;;;6.30;5.17;;;17.40;99.90;;;;;;5071603;28;20655;-60
2023/04/22 10:36:14;;;;;;;6.60;6.00;;;17.60;99.90;;;;;;5074946;28;20198;-60
2023/04/22 10:39:01;;;;;;;6.23;5.63;;;17.30;99.90;;;;;;5074517;28;20202;-60
2023/04/22 10:41:33;;;;;;;6.67;6.07;;;17.20;99.90;;;;;;5070732;28;20719;-60
2023/04/22 10:44:05;;;;;;;7.70;5.63;;;17.20;99.90;;;;;;5069123;28;20216;-59
2023/04/22 10:46:44;;;;;;;8.40;5.80;;;17.30;99.90;;;;;;5069913;28;20225;-61
2023/04/22 10:49:21;;;;;;;7.10;6.40;;;17.50;99.90;;;;;;5066985;28;20696;-61
2023/04/22 10:51:50;;;;;;;7.77;6.30;;;17.60;99.90;;;;;;5048565;28;21078;-60
2023/04/22 10:57:05;;;;;;;7.03;6.33;;;17.40;99.90;;;;;;5067179;28;20214;-60
2023/04/22 10:59:40;;;;;;;7.63;6.30;;;17.30;99.90;;;;;;5069873;28;20235;-60
2023/04/22 11:02:08;;;;;;;8.10;6.20;;;17.10;99.90;;;;;;5071145;28;20665;-60
2023/04/22 11:04:36;;;;;;;8.37;6.67;;;17.10;99.90;;;;;;5072698;28;20293;-61
2023/04/22 11:07:26;;;;;;;8.37;6.93;;;17.20;99.90;;;;;;5071598;28;20296;-60
2023/04/22 11:10:06;;;;;;;8.63;6.73;;;17.20;99.90;;;;;;5063265;28;20808;-60
2023/04/22 11:12:40;;;;;;;7.23;6.40;;;17.10;99.90;;;;;;5074696;28;20205;-60
2023/04/22 11:15:12;;;;;;;9.43;6.93;;;17.00;99.90;;;;;;5053750;28;20295;-60
2023/04/22 11:17:43;;;;;;;7.50;6.60;;;16.80;99.90;;;;;;5055635;28;20205;-60
2023/04/22 11:20:11;;;;;;;7.47;6.57;;;16.60;99.90;;;;;;5071166;28;20209;-60
2023/04/22 11:22:41;;;;;;;8.13;7.13;;;16.40;99.90;;;;;;5071080;28;20292;-60
2023/04/22 11:25:09;;;;;;;9.37;6.73;;;16.30;99.90;;;;;;5072243;28;20579;-60
2023/04/22 11:27:37;;;;;;;6.77;6.07;;;16.00;99.90;;;;;;5041225;28;20224;-61
2023/04/22 11:30:08;;;;;;;8.10;7.30;;;16.00;99.90;;;;;;5052050;28;20219;-60
2023/04/22 11:32:41;;;;;;;10.20;7.10;;;16.00;99.90;;;;;;5074847;28;20678;-60
2023/04/22 11:35:10;;;;;;;6.77;6.03;;;16.00;99.90;;;;;;5053340;28;20209;-60
2023/04/22 11:37:40;;;;;;;9.27;7.23;;;15.90;99.90;;;;;;5073180;28;20204;-60
2023/04/22 11:40:09;;;;;;;7.03;6.33;;;15.70;99.90;;;;;;5072609;28;20711;-60
2023/04/22 11:42:57;;;;;;;8.40;6.47;;;15.60;99.90;;;;;;5073711;28;20206;-60
2023/04/22 11:45:24;;;;;;;9.63;6.73;;;15.70;99.90;;;;;;5072245;28;20317;-60
2023/04/22 11:47:52;;;;;;;7.97;7.00;;;15.60;99.90;;;;;;5071234;28;20223;-60
2023/04/22 11:50:25;;;;;;;6.73;6.03;;;15.50;99.90;;;;;;5075392;28;20292;-60
2023/04/22 11:52:53;;;;;;;7.03;6.30;;;15.50;99.90;;;;;;5064337;28;20201;-60
2023/04/22 11:55:23;;;;;;;8.00;7.20;;;15.40;99.90;;;;;;5070448;28;20329;-60
2023/04/22 11:58:04;;;;;;;10.73;7.20;;;15.40;99.90;;;;;;5072826;28;20291;-61
2023/04/22 12:00:39;;;;;;;8.87;7.97;;;15.60;99.90;;;;;;5055165;28;20574;-61
2023/04/22 12:03:12;;;;;;;10.43;8.23;;;15.50;99.90;;;;;;5059123;28;20319;-61
2023/04/22 12:05:45;;;;;;;11.70;8.37;;;15.50;99.90;;;;;;5070593;28;20601;-60
2023/04/22 12:08:15;;;;;;;9.00;8.07;;;15.50;99.90;;;;;;5071023;28;20201;-61
2023/04/22 12:10:51;;;;;;;12.47;7.57;;;15.40;99.90;;;;;;5071114;28;20275;-62
2023/04/22 12:13:22;;;;;;;8.97;7.63;;;15.20;99.90;;;;;;5060601;28;20218;-60
2023/04/22 12:15:54;;;;;;;11.40;8.67;;;15.00;99.90;;;;;;5065846;28;21288;-60
2023/04/22 12:18:35;;;;;;;11.30;8.93;;;15.00;99.90;;;;;;5072045;28;20279;-60
2023/04/22 12:21:05;;;;;;;9.70;8.70;;;15.20;99.90;;;;;;5071170;28;20247;-60
2023/04/22 12:23:47;;;;;;;10.77;9.33;;;15.30;99.90;;;;;;5054491;28;20242;-60
2023/04/22 12:26:15;;;;;;;10.10;8.97;;;15.20;99.90;;;;;;5071625;28;20229;-60
2023/04/22 12:28:43;;;;;;;12.73;9.67;;;15.40;99.90;;;;;;5067470;28;20247;-60
2023/04/22 12:31:10;;;;;;;11.53;9.83;;;15.30;99.90;;;;;;5074542;28;20198;-60
2023/04/22 12:33:37;;;;;;;12.57;10.30;;;15.10;99.90;;;;;;5073855;28;20304;-60
2023/04/22 12:36:05;;;;;;;12.60;9.90;;;15.00;99.90;;;;;;5057974;28;20321;-60
2023/04/22 12:38:33;;;;;;;11.60;9.83;;;15.10;99.90;;;;;;5074675;28;20654;-60
2023/04/22 12:41:00;;;;;;;11.43;10.23;;;15.00;99.90;;;;;;5074173;28;20318;-60
2023/04/22 12:43:27;;;;;;;11.70;9.63;;;14.90;99.90;;;;;;5076698;28;20312;-60
2023/04/22 12:45:53;;;;;;;11.37;10.03;;;14.80;99.90;;;;;;5073020;28;20716;-60
2023/04/22 12:48:20;;;;;;;10.77;9.67;;;14.80;99.90;;;;;;5070908;28;20192;-60
2023/04/22 12:50:47;;;;;;;13.10;10.67;;;14.70;99.90;;;;;;5070569;28;20208;-60
2023/04/22 12:53:15;;;;;;;10.80;9.67;;;14.70;99.90;;;;;;5068499;28;20207;-60